sensor_id;sensor_type;location;lat;lon;timestamp;P1;durP1;ratioP1;P2;durP2;ratioP2
11197;SDS011;5655;48.744;9.162;2022-09-13T00:01:03;2.95;;;1.60;;
11197;SDS011;5655;48.744;9.162;2022-09-13T00:03:29;3.92;;;1.60;;
11197;SDS011;5655;48.744;9.162;2022-09-13T00:05:54;1.67;;;1.50;;
11197;SDS011;5655;48.744;9.162;2022-09-13T00:08:20;4.50;;;1.67;;
11197;SDS011;5655;48.744;9.162;2022-09-13T00:10:46;4.97;;;1.90;;
11197;SDS011;5655;48.744;9.162;2022-09-13T00:13:12;1.75;;;1.65;;
11197;SDS011;5655;48.744;9.162;2022-09-13T00:15:43;2.00;;;1.80;;
11197;SDS011;5655;48.744;9.162;2022-09-13T00:18:10;3.25;;;1.42;;
11197;SDS011;5655;48.744;9.162;2022-09-13T00:20:35;2.67;;;1.40;;
11197;SDS011;5655;48.744;9.162;2022-09-13T00:23:00;3.28;;;2.13;;
11197;SDS011;5655;48.744;9.162;2022-09-13T00:25:26;4.32;;;1.58;;
11197;SDS011;5655;48.744;9.162;2022-09-13T00:27:51;2.53;;;1.63;;
11197;SDS011;5655;48.744;9.162;2022-09-13T00:30:16;1.40;;;1.25;;
11197;SDS011;5655;48.744;9.162;2022-09-13T00:32:42;1.63;;;1.50;;
11197;SDS011;5655;48.744;9.162;2022-09-13T00:35:07;1.98;;;1.70;;
11197;SDS011;5655;48.744;9.162;2022-09-13T00:37:33;2.03;;;1.58;;
11197;SDS011;5655;48.744;9.162;2022-09-13T00:39:58;1.55;;;1.45;;
11197;SDS011;5655;48.744;9.162;2022-09-13T00:42:25;1.98;;;1.52;;
11197;SDS011;5655;48.744;9.162;2022-09-13T00:45:06;1.33;;;1.23;;
11197;SDS011;5655;48.744;9.162;2022-09-13T00:50:32;1.45;;;1.35;;
11197;SDS011;5655;48.744;9.162;2022-09-13T00:58:05;3.22;;;1.35;;
11197;SDS011;5655;48.744;9.162;2022-09-13T01:00:35;1.55;;;1.45;;
11197;SDS011;5655;48.744;9.162;2022-09-13T01:03:04;1.40;;;1.20;;
11197;SDS011;5655;48.744;9.162;2022-09-13T01:05:34;2.33;;;1.63;;
11197;SDS011;5655;48.744;9.162;2022-09-13T01:08:02;1.80;;;1.45;;
11197;SDS011;5655;48.744;9.162;2022-09-13T01:10:46;1.70;;;1.40;;
11197;SDS011;5655;48.744;9.162;2022-09-13T01:13:18;2.50;;;1.40;;
11197;SDS011;5655;48.744;9.162;2022-09-13T01:15:47;1.92;;;1.20;;
11197;SDS011;5655;48.744;9.162;2022-09-13T01:18:12;2.75;;;1.10;;
11197;SDS011;5655;48.744;9.162;2022-09-13T01:23:37;1.63;;;1.50;;
11197;SDS011;5655;48.744;9.162;2022-09-13T01:31:45;1.77;;;1.50;;
11197;SDS011;5655;48.744;9.162;2022-09-13T01:42:07;1.98;;;1.70;;
11197;SDS011;5655;48.744;9.162;2022-09-13T01:53:08;1.58;;;1.30;;
11197;SDS011;5655;48.744;9.162;2022-09-13T01:55:39;2.00;;;1.48;;
11197;SDS011;5655;48.744;9.162;2022-09-13T01:59:08;1.90;;;1.20;;
11197;SDS011;5655;48.744;9.162;2022-09-13T02:04:01;2.97;;;1.85;;
11197;SDS011;5655;48.744;9.162;2022-09-13T02:06:51;2.75;;;1.98;;
11197;SDS011;5655;48.744;9.162;2022-09-13T02:09:23;3.10;;;1.70;;
11197;SDS011;5655;48.744;9.162;2022-09-13T02:11:56;2.40;;;1.75;;
11197;SDS011;5655;48.744;9.162;2022-09-13T02:14:36;2.47;;;2.10;;
11197;SDS011;5655;48.744;9.162;2022-09-13T02:17:14;2.38;;;1.70;;
11197;SDS011;5655;48.744;9.162;2022-09-13T02:19:46;4.10;;;1.85;;
11197;SDS011;5655;48.744;9.162;2022-09-13T02:22:12;2.95;;;1.73;;
11197;SDS011;5655;48.744;9.162;2022-09-13T02:24:41;2.90;;;2.00;;
11197;SDS011;5655;48.744;9.162;2022-09-13T02:27:13;2.00;;;1.70;;
11197;SDS011;5655;48.744;9.162;2022-09-13T02:29:44;1.90;;;1.70;;
11197;SDS011;5655;48.744;9.162;2022-09-13T02:32:15;1.90;;;1.80;;
11197;SDS011;5655;48.744;9.162;2022-09-13T02:34:53;2.78;;;1.80;;
11197;SDS011;5655;48.744;9.162;2022-09-13T02:37:23;1.90;;;1.70;;
11197;SDS011;5655;48.744;9.162;2022-09-13T02:39:56;2.50;;;2.10;;
11197;SDS011;5655;48.744;9.162;2022-09-13T02:42:32;2.10;;;1.67;;
11197;SDS011;5655;48.744;9.162;2022-09-13T02:45:02;2.08;;;1.88;;
11197;SDS011;5655;48.744;9.162;2022-09-13T02:47:34;2.72;;;1.88;;
11197;SDS011;5655;48.744;9.162;2022-09-13T02:50:18;2.85;;;2.10;;
11197;SDS011;5655;48.744;9.162;2022-09-13T03:00:47;2.55;;;1.92;;
11197;SDS011;5655;48.744;9.162;2022-09-13T03:03:13;4.15;;;1.88;;
11197;SDS011;5655;48.744;9.162;2022-09-13T03:05:40;5.78;;;1.80;;
11197;SDS011;5655;48.744;9.162;2022-09-13T03:08:06;2.20;;;1.75;;
11197;SDS011;5655;48.744;9.162;2022-09-13T03:10:39;2.33;;;2.08;;
11197;SDS011;5655;48.744;9.162;2022-09-13T03:24:42;3.25;;;2.20;;
11197;SDS011;5655;48.744;9.162;2022-09-13T03:30:05;2.10;;;1.85;;
11197;SDS011;5655;48.744;9.162;2022-09-13T03:32:34;3.03;;;2.33;;
11197;SDS011;5655;48.744;9.162;2022-09-13T03:35:03;2.28;;;2.00;;
11197;SDS011;5655;48.744;9.162;2022-09-13T03:42:58;3.45;;;2.20;;
11197;SDS011;5655;48.744;9.162;2022-09-13T03:45:26;2.90;;;2.28;;
11197;SDS011;5655;48.744;9.162;2022-09-13T03:47:56;2.90;;;2.38;;
11197;SDS011;5655;48.744;9.162;2022-09-13T03:50:23;2.40;;;2.20;;
11197;SDS011;5655;48.744;9.162;2022-09-13T03:52:51;2.75;;;2.20;;
11197;SDS011;5655;48.744;9.162;2022-09-13T03:55:23;3.30;;;1.90;;
11197;SDS011;5655;48.744;9.162;2022-09-13T03:57:49;3.05;;;2.10;;
11197;SDS011;5655;48.744;9.162;2022-09-13T04:00:15;3.10;;;2.25;;
11197;SDS011;5655;48.744;9.162;2022-09-13T04:02:42;3.25;;;2.30;;
11197;SDS011;5655;48.744;9.162;2022-09-13T04:05:07;3.80;;;2.40;;
11197;SDS011;5655;48.744;9.162;2022-09-13T04:07:32;3.58;;;2.08;;
11197;SDS011;5655;48.744;9.162;2022-09-13T04:09:58;3.22;;;2.30;;
11197;SDS011;5655;48.744;9.162;2022-09-13T04:12:23;2.67;;;2.30;;
11197;SDS011;5655;48.744;9.162;2022-09-13T04:14:49;3.90;;;2.47;;
11197;SDS011;5655;48.744;9.162;2022-09-13T04:17:14;2.88;;;2.55;;
11197;SDS011;5655;48.744;9.162;2022-09-13T04:19:40;4.10;;;2.20;;
11197;SDS011;5655;48.744;9.162;2022-09-13T04:22:05;2.83;;;1.90;;
11197;SDS011;5655;48.744;9.162;2022-09-13T04:24:31;2.97;;;2.60;;
11197;SDS011;5655;48.744;9.162;2022-09-13T04:26:56;4.53;;;2.33;;
11197;SDS011;5655;48.744;9.162;2022-09-13T04:29:23;3.53;;;2.67;;
11197;SDS011;5655;48.744;9.162;2022-09-13T04:31:50;3.70;;;2.30;;
11197;SDS011;5655;48.744;9.162;2022-09-13T04:34:17;2.33;;;2.13;;
11197;SDS011;5655;48.744;9.162;2022-09-13T04:36:43;3.65;;;2.40;;
11197;SDS011;5655;48.744;9.162;2022-09-13T04:39:09;2.30;;;2.10;;
11197;SDS011;5655;48.744;9.162;2022-09-13T04:41:34;3.88;;;2.50;;
11197;SDS011;5655;48.744;9.162;2022-09-13T04:44:00;4.78;;;2.35;;
11197;SDS011;5655;48.744;9.162;2022-09-13T04:46:26;2.55;;;2.35;;
11197;SDS011;5655;48.744;9.162;2022-09-13T04:48:53;4.78;;;2.42;;
11197;SDS011;5655;48.744;9.162;2022-09-13T04:51:19;3.78;;;2.58;;
11197;SDS011;5655;48.744;9.162;2022-09-13T04:53:45;4.97;;;2.05;;
11197;SDS011;5655;48.744;9.162;2022-09-13T04:56:15;3.55;;;2.65;;
11197;SDS011;5655;48.744;9.162;2022-09-13T04:58:41;2.63;;;2.42;;
11197;SDS011;5655;48.744;9.162;2022-09-13T05:01:08;2.40;;;2.20;;
11197;SDS011;5655;48.744;9.162;2022-09-13T05:03:34;3.58;;;2.35;;
11197;SDS011;5655;48.744;9.162;2022-09-13T05:08:28;3.70;;;2.65;;
11197;SDS011;5655;48.744;9.162;2022-09-13T05:10:54;3.53;;;2.70;;
11197;SDS011;5655;48.744;9.162;2022-09-13T05:13:20;4.40;;;2.60;;
11197;SDS011;5655;48.744;9.162;2022-09-13T05:15:45;4.78;;;3.08;;
11197;SDS011;5655;48.744;9.162;2022-09-13T05:18:11;2.95;;;2.35;;
11197;SDS011;5655;48.744;9.162;2022-09-13T05:20:36;2.90;;;2.33;;
11197;SDS011;5655;48.744;9.162;2022-09-13T05:23:01;2.65;;;2.17;;
11197;SDS011;5655;48.744;9.162;2022-09-13T05:25:27;4.03;;;2.50;;
11197;SDS011;5655;48.744;9.162;2022-09-13T05:27:52;3.28;;;2.80;;
11197;SDS011;5655;48.744;9.162;2022-09-13T05:30:17;3.63;;;2.90;;
11197;SDS011;5655;48.744;9.162;2022-09-13T05:32:43;5.22;;;2.50;;
11197;SDS011;5655;48.744;9.162;2022-09-13T05:35:08;3.92;;;2.33;;
11197;SDS011;5655;48.744;9.162;2022-09-13T05:37:33;3.08;;;2.78;;
11197;SDS011;5655;48.744;9.162;2022-09-13T05:39:59;4.13;;;2.70;;
11197;SDS011;5655;48.744;9.162;2022-09-13T05:42:24;4.13;;;3.05;;
11197;SDS011;5655;48.744;9.162;2022-09-13T05:44:49;3.50;;;2.75;;
11197;SDS011;5655;48.744;9.162;2022-09-13T05:47:15;4.18;;;2.92;;
11197;SDS011;5655;48.744;9.162;2022-09-13T05:49:41;5.00;;;2.72;;
11197;SDS011;5655;48.744;9.162;2022-09-13T05:52:06;5.25;;;3.05;;
11197;SDS011;5655;48.744;9.162;2022-09-13T05:54:31;5.80;;;3.03;;
11197;SDS011;5655;48.744;9.162;2022-09-13T05:56:58;3.65;;;3.30;;
11197;SDS011;5655;48.744;9.162;2022-09-13T05:59:23;2.92;;;2.55;;
11197;SDS011;5655;48.744;9.162;2022-09-13T06:01:49;7.88;;;3.45;;
11197;SDS011;5655;48.744;9.162;2022-09-13T06:04:14;3.75;;;2.85;;
11197;SDS011;5655;48.744;9.162;2022-09-13T06:06:39;4.22;;;2.83;;
11197;SDS011;5655;48.744;9.162;2022-09-13T06:09:04;3.75;;;2.88;;
11197;SDS011;5655;48.744;9.162;2022-09-13T06:11:32;4.25;;;2.70;;
11197;SDS011;5655;48.744;9.162;2022-09-13T06:13:58;6.65;;;3.00;;
11197;SDS011;5655;48.744;9.162;2022-09-13T06:16:23;5.50;;;2.88;;
11197;SDS011;5655;48.744;9.162;2022-09-13T06:18:48;2.50;;;2.28;;
11197;SDS011;5655;48.744;9.162;2022-09-13T06:21:15;2.65;;;2.35;;
11197;SDS011;5655;48.744;9.162;2022-09-13T06:23:43;4.10;;;2.78;;
11197;SDS011;5655;48.744;9.162;2022-09-13T06:26:11;4.22;;;2.20;;
11197;SDS011;5655;48.744;9.162;2022-09-13T06:28:38;6.35;;;3.08;;
11197;SDS011;5655;48.744;9.162;2022-09-13T06:31:05;5.55;;;2.92;;
11197;SDS011;5655;48.744;9.162;2022-09-13T06:33:32;4.95;;;2.72;;
11197;SDS011;5655;48.744;9.162;2022-09-13T06:35:59;8.63;;;2.95;;
11197;SDS011;5655;48.744;9.162;2022-09-13T06:38:26;3.50;;;2.55;;
11197;SDS011;5655;48.744;9.162;2022-09-13T06:41:02;4.28;;;2.90;;
11197;SDS011;5655;48.744;9.162;2022-09-13T06:43:29;3.45;;;2.42;;
11197;SDS011;5655;48.744;9.162;2022-09-13T06:46:08;3.22;;;2.20;;
11197;SDS011;5655;48.744;9.162;2022-09-13T06:48:35;2.83;;;2.40;;
11197;SDS011;5655;48.744;9.162;2022-09-13T06:51:04;4.25;;;2.65;;
11197;SDS011;5655;48.744;9.162;2022-09-13T06:53:32;3.10;;;2.05;;
11197;SDS011;5655;48.744;9.162;2022-09-13T06:56:10;4.45;;;2.45;;
11197;SDS011;5655;48.744;9.162;2022-09-13T06:58:40;4.03;;;2.60;;
11197;SDS011;5655;48.744;9.162;2022-09-13T07:01:07;2.80;;;2.50;;
11197;SDS011;5655;48.744;9.162;2022-09-13T07:03:35;4.03;;;2.08;;
11197;SDS011;5655;48.744;9.162;2022-09-13T07:06:05;2.95;;;2.40;;
11197;SDS011;5655;48.744;9.162;2022-09-13T07:08:31;2.60;;;2.40;;
11197;SDS011;5655;48.744;9.162;2022-09-13T07:10:58;6.35;;;2.85;;
11197;SDS011;5655;48.744;9.162;2022-09-13T07:13:24;8.55;;;2.80;;
11197;SDS011;5655;48.744;9.162;2022-09-13T07:15:49;4.57;;;2.83;;
11197;SDS011;5655;48.744;9.162;2022-09-13T07:18:14;4.15;;;2.97;;
11197;SDS011;5655;48.744;9.162;2022-09-13T07:20:40;3.85;;;2.63;;
11197;SDS011;5655;48.744;9.162;2022-09-13T07:23:05;3.53;;;2.38;;
11197;SDS011;5655;48.744;9.162;2022-09-13T07:25:30;4.57;;;2.80;;
11197;SDS011;5655;48.744;9.162;2022-09-13T07:27:56;5.35;;;2.58;;
11197;SDS011;5655;48.744;9.162;2022-09-13T07:30:21;4.68;;;2.70;;
11197;SDS011;5655;48.744;9.162;2022-09-13T07:32:46;5.88;;;3.05;;
11197;SDS011;5655;48.744;9.162;2022-09-13T07:35:11;5.88;;;2.45;;
11197;SDS011;5655;48.744;9.162;2022-09-13T07:37:37;3.38;;;2.28;;
11197;SDS011;5655;48.744;9.162;2022-09-13T07:40:02;5.03;;;2.83;;
11197;SDS011;5655;48.744;9.162;2022-09-13T07:42:28;4.95;;;2.47;;
11197;SDS011;5655;48.744;9.162;2022-09-13T07:44:53;4.57;;;2.60;;
11197;SDS011;5655;48.744;9.162;2022-09-13T07:47:18;3.75;;;2.45;;
11197;SDS011;5655;48.744;9.162;2022-09-13T07:49:44;3.70;;;2.13;;
11197;SDS011;5655;48.744;9.162;2022-09-13T07:52:10;3.45;;;2.47;;
11197;SDS011;5655;48.744;9.162;2022-09-13T07:54:36;3.63;;;2.78;;
11197;SDS011;5655;48.744;9.162;2022-09-13T07:57:02;3.55;;;2.40;;
11197;SDS011;5655;48.744;9.162;2022-09-13T07:59:28;4.10;;;2.40;;
11197;SDS011;5655;48.744;9.162;2022-09-13T08:01:53;2.80;;;2.42;;
11197;SDS011;5655;48.744;9.162;2022-09-13T08:04:19;12.68;;;2.88;;
11197;SDS011;5655;48.744;9.162;2022-09-13T08:06:49;2.53;;;2.20;;
11197;SDS011;5655;48.744;9.162;2022-09-13T08:09:14;3.22;;;2.33;;
11197;SDS011;5655;48.744;9.162;2022-09-13T08:11:47;3.05;;;2.05;;
11197;SDS011;5655;48.744;9.162;2022-09-13T08:14:17;4.45;;;2.55;;
11197;SDS011;5655;48.744;9.162;2022-09-13T08:16:43;3.15;;;2.25;;
11197;SDS011;5655;48.744;9.162;2022-09-13T08:19:10;6.40;;;2.30;;
11197;SDS011;5655;48.744;9.162;2022-09-13T08:21:39;2.03;;;1.80;;
11197;SDS011;5655;48.744;9.162;2022-09-13T08:24:06;4.40;;;2.28;;
11197;SDS011;5655;48.744;9.162;2022-09-13T08:26:33;5.97;;;2.28;;
11197;SDS011;5655;48.744;9.162;2022-09-13T08:29:00;3.70;;;1.63;;
11197;SDS011;5655;48.744;9.162;2022-09-13T08:31:27;2.22;;;1.85;;
11197;SDS011;5655;48.744;9.162;2022-09-13T08:33:53;4.63;;;2.17;;
11197;SDS011;5655;48.744;9.162;2022-09-13T08:36:20;3.05;;;1.80;;
11197;SDS011;5655;48.744;9.162;2022-09-13T08:38:48;4.53;;;2.05;;
11197;SDS011;5655;48.744;9.162;2022-09-13T08:44:54;4.00;;;2.20;;
11197;SDS011;5655;48.744;9.162;2022-09-13T08:50:38;5.82;;;2.33;;
11197;SDS011;5655;48.744;9.162;2022-09-13T08:53:03;5.18;;;2.33;;
11197;SDS011;5655;48.744;9.162;2022-09-13T08:55:50;2.80;;;1.90;;
11197;SDS011;5655;48.744;9.162;2022-09-13T09:01:05;4.78;;;1.98;;
11197;SDS011;5655;48.744;9.162;2022-09-13T09:03:42;5.00;;;1.95;;
11197;SDS011;5655;48.744;9.162;2022-09-13T09:06:16;10.02;;;1.85;;
11197;SDS011;5655;48.744;9.162;2022-09-13T09:14:20;3.10;;;1.98;;
11197;SDS011;5655;48.744;9.162;2022-09-13T09:17:02;2.72;;;2.00;;
11197;SDS011;5655;48.744;9.162;2022-09-13T09:19:36;4.75;;;2.00;;
11197;SDS011;5655;48.744;9.162;2022-09-13T09:22:18;3.65;;;1.92;;
11197;SDS011;5655;48.744;9.162;2022-09-13T09:24:47;3.92;;;1.88;;
11197;SDS011;5655;48.744;9.162;2022-09-13T09:27:18;2.97;;;1.95;;
11197;SDS011;5655;48.744;9.162;2022-09-13T09:29:46;10.20;;;1.80;;
11197;SDS011;5655;48.744;9.162;2022-09-13T09:35:11;2.42;;;1.67;;
11197;SDS011;5655;48.744;9.162;2022-09-13T09:37:45;3.00;;;1.67;;
11197;SDS011;5655;48.744;9.162;2022-09-13T09:40:24;2.78;;;1.63;;
11197;SDS011;5655;48.744;9.162;2022-09-13T09:42:49;4.00;;;1.23;;
11197;SDS011;5655;48.744;9.162;2022-09-13T09:45:27;3.13;;;1.50;;
11197;SDS011;5655;48.744;9.162;2022-09-13T09:47:57;3.53;;;1.40;;
11197;SDS011;5655;48.744;9.162;2022-09-13T09:50:29;2.30;;;1.30;;
11197;SDS011;5655;48.744;9.162;2022-09-13T09:53:11;2.38;;;1.38;;
11197;SDS011;5655;48.744;9.162;2022-09-13T09:58:34;3.65;;;1.52;;
11197;SDS011;5655;48.744;9.162;2022-09-13T10:01:23;2.20;;;1.23;;
11197;SDS011;5655;48.744;9.162;2022-09-13T10:06:27;3.85;;;1.30;;
11197;SDS011;5655;48.744;9.162;2022-09-13T10:09:04;4.93;;;1.17;;
11197;SDS011;5655;48.744;9.162;2022-09-13T10:17:02;1.58;;;0.90;;
11197;SDS011;5655;48.744;9.162;2022-09-13T10:22:18;1.77;;;0.85;;
11197;SDS011;5655;48.744;9.162;2022-09-13T10:24:43;3.42;;;1.23;;
11197;SDS011;5655;48.744;9.162;2022-09-13T10:30:03;2.50;;;1.00;;
11197;SDS011;5655;48.744;9.162;2022-09-13T10:32:30;0.77;;;0.70;;
11197;SDS011;5655;48.744;9.162;2022-09-13T10:35:02;1.88;;;0.70;;
11197;SDS011;5655;48.744;9.162;2022-09-13T10:37:39;5.20;;;1.75;;
11197;SDS011;5655;48.744;9.162;2022-09-13T10:40:17;1.70;;;1.00;;
11197;SDS011;5655;48.744;9.162;2022-09-13T10:42:52;2.03;;;1.00;;
11197;SDS011;5655;48.744;9.162;2022-09-13T10:45:22;1.38;;;0.85;;
11197;SDS011;5655;48.744;9.162;2022-09-13T10:47:50;2.88;;;0.88;;
11197;SDS011;5655;48.744;9.162;2022-09-13T10:50:19;1.00;;;0.90;;
11197;SDS011;5655;48.744;9.162;2022-09-13T10:57:46;1.33;;;0.68;;
11197;SDS011;5655;48.744;9.162;2022-09-13T11:00:21;1.63;;;0.60;;
11197;SDS011;5655;48.744;9.162;2022-09-13T11:05:56;1.20;;;0.70;;
11197;SDS011;5655;48.744;9.162;2022-09-13T11:08:54;4.43;;;1.05;;
11197;SDS011;5655;48.744;9.162;2022-09-13T11:11:32;2.75;;;0.80;;
11197;SDS011;5655;48.744;9.162;2022-09-13T11:14:03;1.58;;;0.60;;
11197;SDS011;5655;48.744;9.162;2022-09-13T11:16:35;1.08;;;0.98;;
11197;SDS011;5655;48.744;9.162;2022-09-13T11:29:41;0.75;;;0.70;;
11197;SDS011;5655;48.744;9.162;2022-09-13T11:35:13;1.15;;;0.70;;
11197;SDS011;5655;48.744;9.162;2022-09-13T11:54:00;0.98;;;0.70;;
11197;SDS011;5655;48.744;9.162;2022-09-13T11:56:37;1.15;;;0.75;;
11197;SDS011;5655;48.744;9.162;2022-09-13T11:59:15;1.48;;;0.80;;
11197;SDS011;5655;48.744;9.162;2022-09-13T12:05:00;1.92;;;0.80;;
11197;SDS011;5655;48.744;9.162;2022-09-13T12:10:18;1.88;;;0.90;;
11197;SDS011;5655;48.744;9.162;2022-09-13T12:12:45;0.85;;;0.77;;
11197;SDS011;5655;48.744;9.162;2022-09-13T12:15:58;2.55;;;0.98;;
11197;SDS011;5655;48.744;9.162;2022-09-13T12:18:15;2.95;;;1.10;;
11197;SDS011;5655;48.744;9.162;2022-09-13T12:20:52;1.98;;;1.02;;
11197;SDS011;5655;48.744;9.162;2022-09-13T12:26:01;2.75;;;1.77;;
11197;SDS011;5655;48.744;9.162;2022-09-13T12:28:36;3.75;;;1.33;;
11197;SDS011;5655;48.744;9.162;2022-09-13T12:31:09;4.07;;;2.10;;
11197;SDS011;5655;48.744;9.162;2022-09-13T12:33:40;2.95;;;1.08;;
11197;SDS011;5655;48.744;9.162;2022-09-13T12:41:40;2.08;;;1.00;;
11197;SDS011;5655;48.744;9.162;2022-09-13T12:49:35;3.60;;;1.00;;
11197;SDS011;5655;48.744;9.162;2022-09-13T12:57:43;1.10;;;1.00;;
11197;SDS011;5655;48.744;9.162;2022-09-13T13:00:30;1.90;;;1.00;;
11197;SDS011;5655;48.744;9.162;2022-09-13T13:03:00;3.37;;;1.30;;
11197;SDS011;5655;48.744;9.162;2022-09-13T13:05:35;1.67;;;1.17;;
11197;SDS011;5655;48.744;9.162;2022-09-13T13:08:05;1.48;;;1.00;;
11197;SDS011;5655;48.744;9.162;2022-09-13T13:10:41;2.53;;;0.90;;
11197;SDS011;5655;48.744;9.162;2022-09-13T13:13:21;1.15;;;0.70;;
11197;SDS011;5655;48.744;9.162;2022-09-13T13:15:57;1.58;;;0.70;;
11197;SDS011;5655;48.744;9.162;2022-09-13T13:21:21;3.75;;;0.70;;
11197;SDS011;5655;48.744;9.162;2022-09-13T13:24:36;3.65;;;0.88;;
11197;SDS011;5655;48.744;9.162;2022-09-13T13:26:52;1.02;;;0.75;;
11197;SDS011;5655;48.744;9.162;2022-09-13T13:29:28;0.73;;;0.65;;
11197;SDS011;5655;48.744;9.162;2022-09-13T13:34:25;0.93;;;0.80;;
11197;SDS011;5655;48.744;9.162;2022-09-13T13:36:58;2.03;;;0.80;;
11197;SDS011;5655;48.744;9.162;2022-09-13T13:41:52;1.10;;;0.85;;
11197;SDS011;5655;48.744;9.162;2022-09-13T13:46:54;1.90;;;0.70;;
11197;SDS011;5655;48.744;9.162;2022-09-13T13:59:51;0.85;;;0.60;;
11197;SDS011;5655;48.744;9.162;2022-09-13T14:02:20;3.13;;;1.27;;
11197;SDS011;5655;48.744;9.162;2022-09-13T14:05:04;0.85;;;0.70;;
11197;SDS011;5655;48.744;9.162;2022-09-13T14:07:56;8.50;;;0.90;;
11197;SDS011;5655;48.744;9.162;2022-09-13T14:13:39;0.82;;;0.60;;
11197;SDS011;5655;48.744;9.162;2022-09-13T14:19:22;0.60;;;0.60;;
11197;SDS011;5655;48.744;9.162;2022-09-13T14:22:04;3.45;;;0.90;;
11197;SDS011;5655;48.744;9.162;2022-09-13T14:24:39;0.88;;;0.77;;
11197;SDS011;5655;48.744;9.162;2022-09-13T14:27:12;2.97;;;0.60;;
11197;SDS011;5655;48.744;9.162;2022-09-13T14:30:04;1.45;;;0.80;;
11197;SDS011;5655;48.744;9.162;2022-09-13T14:32:44;1.10;;;0.47;;
11197;SDS011;5655;48.744;9.162;2022-09-13T14:38:11;1.05;;;0.50;;
11197;SDS011;5655;48.744;9.162;2022-09-13T14:40:45;0.50;;;0.50;;
11197;SDS011;5655;48.744;9.162;2022-09-13T14:43:14;2.25;;;0.68;;
11197;SDS011;5655;48.744;9.162;2022-09-13T14:45:41;2.15;;;0.50;;
11197;SDS011;5655;48.744;9.162;2022-09-13T14:50:55;3.70;;;0.98;;
11197;SDS011;5655;48.744;9.162;2022-09-13T14:53:25;1.38;;;0.50;;
11197;SDS011;5655;48.744;9.162;2022-09-13T14:58:55;0.50;;;0.50;;
11197;SDS011;5655;48.744;9.162;2022-09-13T15:01:30;1.13;;;0.63;;
11197;SDS011;5655;48.744;9.162;2022-09-13T15:03:59;1.48;;;0.65;;
11197;SDS011;5655;48.744;9.162;2022-09-13T15:06:28;2.78;;;0.80;;
11197;SDS011;5655;48.744;9.162;2022-09-13T15:09:13;2.05;;;0.60;;
11197;SDS011;5655;48.744;9.162;2022-09-13T15:11:54;1.15;;;0.70;;
11197;SDS011;5655;48.744;9.162;2022-09-13T15:14:26;1.58;;;0.70;;
11197;SDS011;5655;48.744;9.162;2022-09-13T15:17:05;1.63;;;0.60;;
11197;SDS011;5655;48.744;9.162;2022-09-13T15:22:08;2.58;;;0.60;;
11197;SDS011;5655;48.744;9.162;2022-09-13T15:24:38;0.70;;;0.63;;
11197;SDS011;5655;48.744;9.162;2022-09-13T15:27:22;3.28;;;0.90;;
11197;SDS011;5655;48.744;9.162;2022-09-13T15:29:52;0.45;;;0.45;;
11197;SDS011;5655;48.744;9.162;2022-09-13T15:32:21;2.20;;;0.60;;
11197;SDS011;5655;48.744;9.162;2022-09-13T15:35:15;0.52;;;0.52;;
11197;SDS011;5655;48.744;9.162;2022-09-13T15:37:41;0.75;;;0.52;;
11197;SDS011;5655;48.744;9.162;2022-09-13T15:40:10;0.60;;;0.40;;
11197;SDS011;5655;48.744;9.162;2022-09-13T15:42:46;2.50;;;0.55;;
11197;SDS011;5655;48.744;9.162;2022-09-13T15:45:16;0.85;;;0.70;;
11197;SDS011;5655;48.744;9.162;2022-09-13T15:47:44;0.68;;;0.50;;
11197;SDS011;5655;48.744;9.162;2022-09-13T15:50:21;0.80;;;0.60;;
11197;SDS011;5655;48.744;9.162;2022-09-13T15:52:50;3.58;;;0.63;;
11197;SDS011;5655;48.744;9.162;2022-09-13T15:55:16;1.10;;;0.80;;
11197;SDS011;5655;48.744;9.162;2022-09-13T15:57:42;1.45;;;0.80;;
11197;SDS011;5655;48.744;9.162;2022-09-13T16:00:13;2.08;;;0.80;;
11197;SDS011;5655;48.744;9.162;2022-09-13T16:02:40;3.15;;;0.90;;
11197;SDS011;5655;48.744;9.162;2022-09-13T16:05:06;4.15;;;0.93;;
11197;SDS011;5655;48.744;9.162;2022-09-13T16:07:32;2.70;;;1.00;;
11197;SDS011;5655;48.744;9.162;2022-09-13T16:09:58;0.88;;;0.82;;
11197;SDS011;5655;48.744;9.162;2022-09-13T16:12:23;1.02;;;0.90;;
11197;SDS011;5655;48.744;9.162;2022-09-13T16:14:51;1.42;;;0.80;;
11197;SDS011;5655;48.744;9.162;2022-09-13T16:17:19;1.70;;;1.10;;
11197;SDS011;5655;48.744;9.162;2022-09-13T16:19:46;2.78;;;0.90;;
11197;SDS011;5655;48.744;9.162;2022-09-13T16:22:12;5.25;;;0.90;;
11197;SDS011;5655;48.744;9.162;2022-09-13T16:24:37;2.30;;;0.95;;
11197;SDS011;5655;48.744;9.162;2022-09-13T16:27:02;1.80;;;0.93;;
11197;SDS011;5655;48.744;9.162;2022-09-13T16:29:28;1.30;;;0.90;;
11197;SDS011;5655;48.744;9.162;2022-09-13T16:31:53;2.67;;;1.00;;
11197;SDS011;5655;48.744;9.162;2022-09-13T16:34:19;2.17;;;0.95;;
11197;SDS011;5655;48.744;9.162;2022-09-13T16:36:45;1.52;;;0.70;;
11197;SDS011;5655;48.744;9.162;2022-09-13T16:39:11;1.23;;;1.13;;
11197;SDS011;5655;48.744;9.162;2022-09-13T16:41:37;2.63;;;2.10;;
11197;SDS011;5655;48.744;9.162;2022-09-13T16:44:04;1.65;;;1.05;;
11197;SDS011;5655;48.744;9.162;2022-09-13T16:46:29;1.40;;;1.17;;
11197;SDS011;5655;48.744;9.162;2022-09-13T16:48:55;2.17;;;1.15;;
11197;SDS011;5655;48.744;9.162;2022-09-13T16:51:20;2.30;;;1.42;;
11197;SDS011;5655;48.744;9.162;2022-09-13T16:53:47;1.58;;;1.20;;
11197;SDS011;5655;48.744;9.162;2022-09-13T16:56:14;4.28;;;1.50;;
11197;SDS011;5655;48.744;9.162;2022-09-13T16:58:42;3.30;;;1.52;;
11197;SDS011;5655;48.744;9.162;2022-09-13T17:01:11;2.72;;;1.30;;
11197;SDS011;5655;48.744;9.162;2022-09-13T17:03:38;3.42;;;1.40;;
11197;SDS011;5655;48.744;9.162;2022-09-13T17:06:05;8.63;;;4.50;;
11197;SDS011;5655;48.744;9.162;2022-09-13T17:08:32;1.58;;;1.17;;
11197;SDS011;5655;48.744;9.162;2022-09-13T17:10:59;3.78;;;1.70;;
11197;SDS011;5655;48.744;9.162;2022-09-13T17:13:28;10.93;;;5.65;;
11197;SDS011;5655;48.744;9.162;2022-09-13T17:15:53;4.85;;;2.83;;
11197;SDS011;5655;48.744;9.162;2022-09-13T17:18:19;5.88;;;3.88;;
11197;SDS011;5655;48.744;9.162;2022-09-13T17:20:45;21.80;;;11.80;;
11197;SDS011;5655;48.744;9.162;2022-09-13T17:23:12;15.50;;;8.93;;
11197;SDS011;5655;48.744;9.162;2022-09-13T17:25:42;5.35;;;3.65;;
11197;SDS011;5655;48.744;9.162;2022-09-13T17:28:14;7.82;;;5.20;;
11197;SDS011;5655;48.744;9.162;2022-09-13T17:30:40;11.35;;;8.02;;
11197;SDS011;5655;48.744;9.162;2022-09-13T17:33:06;6.72;;;4.57;;
11197;SDS011;5655;48.744;9.162;2022-09-13T17:35:32;3.92;;;2.75;;
11197;SDS011;5655;48.744;9.162;2022-09-13T17:37:59;7.35;;;2.75;;
11197;SDS011;5655;48.744;9.162;2022-09-13T17:40:25;5.88;;;4.22;;
11197;SDS011;5655;48.744;9.162;2022-09-13T17:42:52;5.97;;;3.75;;
11197;SDS011;5655;48.744;9.162;2022-09-13T17:45:17;5.90;;;2.75;;
11197;SDS011;5655;48.744;9.162;2022-09-13T17:47:43;4.10;;;2.67;;
11197;SDS011;5655;48.744;9.162;2022-09-13T17:50:08;6.53;;;2.58;;
11197;SDS011;5655;48.744;9.162;2022-09-13T17:52:34;2.80;;;2.00;;
11197;SDS011;5655;48.744;9.162;2022-09-13T17:54:59;2.83;;;1.88;;
11197;SDS011;5655;48.744;9.162;2022-09-13T17:57:25;3.88;;;2.83;;
11197;SDS011;5655;48.744;9.162;2022-09-13T17:59:52;2.10;;;1.90;;
11197;SDS011;5655;48.744;9.162;2022-09-13T18:02:18;4.22;;;3.03;;
11197;SDS011;5655;48.744;9.162;2022-09-13T18:04:45;3.97;;;2.40;;
11197;SDS011;5655;48.744;9.162;2022-09-13T18:07:11;4.60;;;2.53;;
11197;SDS011;5655;48.744;9.162;2022-09-13T18:09:36;3.08;;;2.45;;
11197;SDS011;5655;48.744;9.162;2022-09-13T18:12:04;4.93;;;2.75;;
11197;SDS011;5655;48.744;9.162;2022-09-13T18:14:29;3.25;;;2.70;;
11197;SDS011;5655;48.744;9.162;2022-09-13T18:16:54;4.53;;;3.00;;
11197;SDS011;5655;48.744;9.162;2022-09-13T18:19:21;4.20;;;2.85;;
11197;SDS011;5655;48.744;9.162;2022-09-13T18:21:47;5.70;;;2.22;;
11197;SDS011;5655;48.744;9.162;2022-09-13T18:24:13;2.80;;;2.00;;
11197;SDS011;5655;48.744;9.162;2022-09-13T18:26:38;2.55;;;1.52;;
11197;SDS011;5655;48.744;9.162;2022-09-13T18:29:04;4.57;;;2.53;;
11197;SDS011;5655;48.744;9.162;2022-09-13T18:31:34;4.18;;;2.20;;
11197;SDS011;5655;48.744;9.162;2022-09-13T18:34:02;3.88;;;2.53;;
11197;SDS011;5655;48.744;9.162;2022-09-13T18:36:30;2.70;;;2.10;;